sensor_id;sensor_type;location;lat;lon;timestamp;P1;durP1;ratioP1;P2;durP2;ratioP2
59145;SDS011;44928;53.074;6.646;2022-08-21T00:01:34;6.90;;;2.22;;
59145;SDS011;44928;53.074;6.646;2022-08-21T00:04:04;7.10;;;2.40;;
59145;SDS011;44928;53.074;6.646;2022-08-21T00:06:31;8.55;;;2.72;;
59145;SDS011;44928;53.074;6.646;2022-08-21T00:08:59;7.55;;;2.33;;
59145;SDS011;44928;53.074;6.646;2022-08-21T00:11:25;7.82;;;2.22;;
59145;SDS011;44928;53.074;6.646;2022-08-21T00:13:52;12.02;;;2.60;;
59145;SDS011;44928;53.074;6.646;2022-08-21T00:16:18;11.07;;;2.60;;
59145;SDS011;44928;53.074;6.646;2022-08-21T00:18:44;9.77;;;2.58;;
59145;SDS011;44928;53.074;6.646;2022-08-21T00:21:11;9.05;;;2.50;;
59145;SDS011;44928;53.074;6.646;2022-08-21T00:23:38;8.73;;;2.30;;
59145;SDS011;44928;53.074;6.646;2022-08-21T00:26:04;8.23;;;2.45;;
59145;SDS011;44928;53.074;6.646;2022-08-21T00:28:31;9.57;;;2.20;;
59145;SDS011;44928;53.074;6.646;2022-08-21T00:30:57;7.57;;;2.42;;
59145;SDS011;44928;53.074;6.646;2022-08-21T00:33:24;8.32;;;2.53;;
59145;SDS011;44928;53.074;6.646;2022-08-21T00:35:50;9.43;;;2.20;;
59145;SDS011;44928;53.074;6.646;2022-08-21T00:38:17;9.40;;;2.60;;
59145;SDS011;44928;53.074;6.646;2022-08-21T00:40:46;8.48;;;2.55;;
59145;SDS011;44928;53.074;6.646;2022-08-21T00:43:18;7.70;;;2.40;;
59145;SDS011;44928;53.074;6.646;2022-08-21T00:45:49;9.70;;;2.33;;
59145;SDS011;44928;53.074;6.646;2022-08-21T00:48:15;10.23;;;3.00;;
59145;SDS011;44928;53.074;6.646;2022-08-21T00:50:44;7.85;;;2.50;;
59145;SDS011;44928;53.074;6.646;2022-08-21T00:53:15;6.70;;;2.33;;
59145;SDS011;44928;53.074;6.646;2022-08-21T00:55:42;7.25;;;2.20;;
59145;SDS011;44928;53.074;6.646;2022-08-21T00:58:10;9.07;;;2.25;;
59145;SDS011;44928;53.074;6.646;2022-08-21T01:00:39;8.65;;;2.40;;
59145;SDS011;44928;53.074;6.646;2022-08-21T01:03:11;7.28;;;2.17;;
59145;SDS011;44928;53.074;6.646;2022-08-21T01:05:39;7.47;;;2.33;;
59145;SDS011;44928;53.074;6.646;2022-08-21T01:08:06;8.55;;;2.38;;
59145;SDS011;44928;53.074;6.646;2022-08-21T01:10:34;7.93;;;2.35;;
59145;SDS011;44928;53.074;6.646;2022-08-21T01:13:02;7.50;;;2.42;;
59145;SDS011;44928;53.074;6.646;2022-08-21T01:15:33;8.77;;;2.63;;
59145;SDS011;44928;53.074;6.646;2022-08-21T01:18:01;11.18;;;2.78;;
59145;SDS011;44928;53.074;6.646;2022-08-21T01:20:29;10.40;;;2.55;;
59145;SDS011;44928;53.074;6.646;2022-08-21T01:22:55;8.75;;;2.45;;
59145;SDS011;44928;53.074;6.646;2022-08-21T01:25:21;7.55;;;2.30;;
59145;SDS011;44928;53.074;6.646;2022-08-21T01:27:47;10.60;;;2.53;;
59145;SDS011;44928;53.074;6.646;2022-08-21T01:30:18;8.60;;;2.63;;
59145;SDS011;44928;53.074;6.646;2022-08-21T01:32:47;6.75;;;2.53;;
59145;SDS011;44928;53.074;6.646;2022-08-21T01:35:14;8.52;;;2.70;;
59145;SDS011;44928;53.074;6.646;2022-08-21T01:37:41;10.80;;;2.78;;
59145;SDS011;44928;53.074;6.646;2022-08-21T01:40:08;9.18;;;2.50;;
59145;SDS011;44928;53.074;6.646;2022-08-21T01:42:35;10.80;;;3.00;;
59145;SDS011;44928;53.074;6.646;2022-08-21T01:45:03;8.05;;;2.47;;
59145;SDS011;44928;53.074;6.646;2022-08-21T01:47:30;12.35;;;2.70;;
59145;SDS011;44928;53.074;6.646;2022-08-21T01:49:56;7.13;;;2.53;;
59145;SDS011;44928;53.074;6.646;2022-08-21T01:52:22;6.82;;;2.70;;
59145;SDS011;44928;53.074;6.646;2022-08-21T01:54:48;8.52;;;2.85;;
59145;SDS011;44928;53.074;6.646;2022-08-21T01:57:14;8.43;;;2.92;;
59145;SDS011;44928;53.074;6.646;2022-08-21T01:59:40;7.03;;;2.88;;
59145;SDS011;44928;53.074;6.646;2022-08-21T02:02:06;8.80;;;2.85;;
59145;SDS011;44928;53.074;6.646;2022-08-21T02:04:32;11.88;;;3.22;;
59145;SDS011;44928;53.074;6.646;2022-08-21T02:06:59;7.88;;;2.83;;
59145;SDS011;44928;53.074;6.646;2022-08-21T02:09:25;8.30;;;2.83;;
59145;SDS011;44928;53.074;6.646;2022-08-21T02:11:51;9.05;;;2.92;;
59145;SDS011;44928;53.074;6.646;2022-08-21T02:14:17;9.57;;;3.17;;
59145;SDS011;44928;53.074;6.646;2022-08-21T02:16:44;7.18;;;2.95;;
59145;SDS011;44928;53.074;6.646;2022-08-21T02:19:11;10.63;;;3.17;;
59145;SDS011;44928;53.074;6.646;2022-08-21T02:21:38;8.65;;;3.10;;
59145;SDS011;44928;53.074;6.646;2022-08-21T02:24:04;10.52;;;3.58;;
59145;SDS011;44928;53.074;6.646;2022-08-21T02:26:30;8.32;;;3.05;;
59145;SDS011;44928;53.074;6.646;2022-08-21T02:28:56;8.55;;;3.60;;
59145;SDS011;44928;53.074;6.646;2022-08-21T02:31:22;9.93;;;3.40;;
59145;SDS011;44928;53.074;6.646;2022-08-21T02:33:48;10.80;;;3.47;;
59145;SDS011;44928;53.074;6.646;2022-08-21T02:36:14;9.27;;;3.30;;
59145;SDS011;44928;53.074;6.646;2022-08-21T02:38:40;8.32;;;3.10;;
59145;SDS011;44928;53.074;6.646;2022-08-21T02:41:09;9.25;;;3.40;;
59145;SDS011;44928;53.074;6.646;2022-08-21T02:43:37;9.93;;;4.13;;
59145;SDS011;44928;53.074;6.646;2022-08-21T02:46:04;10.00;;;3.70;;
59145;SDS011;44928;53.074;6.646;2022-08-21T02:48:32;10.57;;;4.18;;
59145;SDS011;44928;53.074;6.646;2022-08-21T02:53:32;9.27;;;3.60;;
59145;SDS011;44928;53.074;6.646;2022-08-21T02:55:59;9.13;;;4.25;;
59145;SDS011;44928;53.074;6.646;2022-08-21T02:58:30;11.85;;;4.00;;
59145;SDS011;44928;53.074;6.646;2022-08-21T03:00:58;11.90;;;4.90;;
59145;SDS011;44928;53.074;6.646;2022-08-21T03:03:24;10.57;;;4.30;;
59145;SDS011;44928;53.074;6.646;2022-08-21T03:05:51;10.60;;;4.95;;
59145;SDS011;44928;53.074;6.646;2022-08-21T03:08:17;12.20;;;4.60;;
59145;SDS011;44928;53.074;6.646;2022-08-21T03:10:48;8.65;;;3.85;;
59145;SDS011;44928;53.074;6.646;2022-08-21T03:15:42;9.98;;;4.70;;
59145;SDS011;44928;53.074;6.646;2022-08-21T03:18:08;11.07;;;5.07;;
59145;SDS011;44928;53.074;6.646;2022-08-21T03:20:35;9.70;;;4.57;;
59145;SDS011;44928;53.074;6.646;2022-08-21T03:23:03;11.00;;;5.07;;
59145;SDS011;44928;53.074;6.646;2022-08-21T03:25:29;11.52;;;4.97;;
59145;SDS011;44928;53.074;6.646;2022-08-21T03:27:59;10.90;;;5.07;;
59145;SDS011;44928;53.074;6.646;2022-08-21T03:30:26;13.93;;;4.93;;
59145;SDS011;44928;53.074;6.646;2022-08-21T03:32:52;13.45;;;5.40;;
59145;SDS011;44928;53.074;6.646;2022-08-21T03:35:18;11.30;;;5.25;;
59145;SDS011;44928;53.074;6.646;2022-08-21T03:37:45;11.13;;;4.90;;
59145;SDS011;44928;53.074;6.646;2022-08-21T03:40:13;9.20;;;5.28;;
59145;SDS011;44928;53.074;6.646;2022-08-21T03:42:40;10.10;;;4.57;;
59145;SDS011;44928;53.074;6.646;2022-08-21T03:45:06;12.93;;;5.35;;
59145;SDS011;44928;53.074;6.646;2022-08-21T03:47:33;11.70;;;5.32;;
59145;SDS011;44928;53.074;6.646;2022-08-21T03:50:00;10.60;;;5.18;;
59145;SDS011;44928;53.074;6.646;2022-08-21T03:52:26;9.90;;;5.25;;
59145;SDS011;44928;53.074;6.646;2022-08-21T03:54:52;12.10;;;5.43;;
59145;SDS011;44928;53.074;6.646;2022-08-21T03:57:18;10.38;;;5.13;;
59145;SDS011;44928;53.074;6.646;2022-08-21T03:59:43;9.95;;;5.20;;
59145;SDS011;44928;53.074;6.646;2022-08-21T04:02:09;10.38;;;5.15;;
59145;SDS011;44928;53.074;6.646;2022-08-21T04:04:37;10.95;;;5.28;;
59145;SDS011;44928;53.074;6.646;2022-08-21T04:07:03;9.93;;;5.65;;
59145;SDS011;44928;53.074;6.646;2022-08-21T04:09:29;12.18;;;5.40;;
59145;SDS011;44928;53.074;6.646;2022-08-21T04:11:56;11.57;;;5.30;;
59145;SDS011;44928;53.074;6.646;2022-08-21T04:14:23;11.38;;;5.45;;
59145;SDS011;44928;53.074;6.646;2022-08-21T04:16:49;11.18;;;5.80;;
59145;SDS011;44928;53.074;6.646;2022-08-21T04:19:15;13.13;;;5.68;;
59145;SDS011;44928;53.074;6.646;2022-08-21T04:21:41;12.18;;;5.97;;
59145;SDS011;44928;53.074;6.646;2022-08-21T04:24:07;11.10;;;5.82;;
59145;SDS011;44928;53.074;6.646;2022-08-21T04:26:35;10.40;;;5.40;;
59145;SDS011;44928;53.074;6.646;2022-08-21T04:29:02;9.05;;;5.00;;
59145;SDS011;44928;53.074;6.646;2022-08-21T04:31:31;12.38;;;5.50;;
59145;SDS011;44928;53.074;6.646;2022-08-21T04:33:58;10.25;;;5.60;;
59145;SDS011;44928;53.074;6.646;2022-08-21T04:36:24;11.18;;;5.78;;
59145;SDS011;44928;53.074;6.646;2022-08-21T04:38:50;10.57;;;4.95;;
59145;SDS011;44928;53.074;6.646;2022-08-21T04:41:16;10.13;;;5.43;;
59145;SDS011;44928;53.074;6.646;2022-08-21T04:43:42;11.20;;;5.88;;
59145;SDS011;44928;53.074;6.646;2022-08-21T04:46:08;10.25;;;6.00;;
59145;SDS011;44928;53.074;6.646;2022-08-21T04:48:34;11.07;;;5.72;;
59145;SDS011;44928;53.074;6.646;2022-08-21T04:51:01;12.18;;;5.65;;
59145;SDS011;44928;53.074;6.646;2022-08-21T04:56:58;11.77;;;6.22;;
59145;SDS011;44928;53.074;6.646;2022-08-21T04:59:14;11.57;;;5.45;;
59145;SDS011;44928;53.074;6.646;2022-08-21T05:01:44;10.75;;;5.90;;
59145;SDS011;44928;53.074;6.646;2022-08-21T05:04:11;12.30;;;6.82;;
59145;SDS011;44928;53.074;6.646;2022-08-21T05:06:41;16.03;;;6.10;;
59145;SDS011;44928;53.074;6.646;2022-08-21T05:09:10;10.85;;;5.70;;
59145;SDS011;44928;53.074;6.646;2022-08-21T05:11:39;11.52;;;6.07;;
59145;SDS011;44928;53.074;6.646;2022-08-21T05:14:07;12.05;;;6.40;;
59145;SDS011;44928;53.074;6.646;2022-08-21T05:16:32;12.82;;;5.90;;
59145;SDS011;44928;53.074;6.646;2022-08-21T05:18:58;12.43;;;5.90;;
59145;SDS011;44928;53.074;6.646;2022-08-21T05:21:24;12.88;;;5.85;;
59145;SDS011;44928;53.074;6.646;2022-08-21T05:23:50;12.15;;;6.20;;
59145;SDS011;44928;53.074;6.646;2022-08-21T05:26:15;10.68;;;5.70;;
59145;SDS011;44928;53.074;6.646;2022-08-21T05:28:41;13.10;;;6.75;;
59145;SDS011;44928;53.074;6.646;2022-08-21T05:31:07;13.65;;;6.68;;
59145;SDS011;44928;53.074;6.646;2022-08-21T05:33:33;13.25;;;6.88;;
59145;SDS011;44928;53.074;6.646;2022-08-21T05:35:58;12.45;;;6.70;;
59145;SDS011;44928;53.074;6.646;2022-08-21T05:38:24;11.10;;;5.95;;
59145;SDS011;44928;53.074;6.646;2022-08-21T05:40:52;12.60;;;6.38;;
59145;SDS011;44928;53.074;6.646;2022-08-21T05:43:18;11.75;;;6.20;;
59145;SDS011;44928;53.074;6.646;2022-08-21T05:45:44;11.25;;;5.85;;
59145;SDS011;44928;53.074;6.646;2022-08-21T05:48:11;12.93;;;6.40;;
59145;SDS011;44928;53.074;6.646;2022-08-21T05:50:37;12.45;;;6.25;;
59145;SDS011;44928;53.074;6.646;2022-08-21T05:53:03;11.13;;;5.68;;
59145;SDS011;44928;53.074;6.646;2022-08-21T05:55:30;10.85;;;5.45;;
59145;SDS011;44928;53.074;6.646;2022-08-21T05:57:55;11.48;;;6.32;;
59145;SDS011;44928;53.074;6.646;2022-08-21T06:00:21;11.02;;;5.57;;
59145;SDS011;44928;53.074;6.646;2022-08-21T06:02:48;9.63;;;5.38;;
59145;SDS011;44928;53.074;6.646;2022-08-21T06:05:16;12.27;;;4.90;;
59145;SDS011;44928;53.074;6.646;2022-08-21T06:07:42;13.35;;;5.55;;
59145;SDS011;44928;53.074;6.646;2022-08-21T06:10:08;10.32;;;5.45;;
59145;SDS011;44928;53.074;6.646;2022-08-21T06:12:35;11.63;;;5.35;;
59145;SDS011;44928;53.074;6.646;2022-08-21T06:15:01;12.18;;;5.50;;
59145;SDS011;44928;53.074;6.646;2022-08-21T06:17:27;13.60;;;5.68;;
59145;SDS011;44928;53.074;6.646;2022-08-21T06:19:53;13.30;;;4.85;;
59145;SDS011;44928;53.074;6.646;2022-08-21T06:22:19;13.57;;;5.57;;
59145;SDS011;44928;53.074;6.646;2022-08-21T06:24:46;10.45;;;4.80;;
59145;SDS011;44928;53.074;6.646;2022-08-21T06:27:12;10.60;;;5.38;;
59145;SDS011;44928;53.074;6.646;2022-08-21T06:29:38;13.60;;;5.57;;
59145;SDS011;44928;53.074;6.646;2022-08-21T06:32:04;11.57;;;5.32;;
59145;SDS011;44928;53.074;6.646;2022-08-21T06:34:37;14.37;;;4.90;;
59145;SDS011;44928;53.074;6.646;2022-08-21T06:37:05;11.38;;;4.38;;
59145;SDS011;44928;53.074;6.646;2022-08-21T06:39:31;13.45;;;4.78;;
59145;SDS011;44928;53.074;6.646;2022-08-21T06:41:57;9.80;;;4.15;;
59145;SDS011;44928;53.074;6.646;2022-08-21T06:44:23;11.60;;;4.53;;
59145;SDS011;44928;53.074;6.646;2022-08-21T06:46:49;12.32;;;4.10;;
59145;SDS011;44928;53.074;6.646;2022-08-21T06:49:14;11.77;;;4.03;;
59145;SDS011;44928;53.074;6.646;2022-08-21T06:51:40;11.73;;;3.85;;
59145;SDS011;44928;53.074;6.646;2022-08-21T06:54:06;10.13;;;3.95;;
59145;SDS011;44928;53.074;6.646;2022-08-21T06:56:32;10.70;;;3.63;;
59145;SDS011;44928;53.074;6.646;2022-08-21T06:59:00;11.20;;;4.10;;
59145;SDS011;44928;53.074;6.646;2022-08-21T07:01:26;12.38;;;3.85;;
59145;SDS011;44928;53.074;6.646;2022-08-21T07:03:52;13.02;;;3.78;;
59145;SDS011;44928;53.074;6.646;2022-08-21T07:06:18;13.23;;;3.35;;
59145;SDS011;44928;53.074;6.646;2022-08-21T07:08:44;10.82;;;3.58;;
59145;SDS011;44928;53.074;6.646;2022-08-21T07:11:14;9.50;;;3.00;;
59145;SDS011;44928;53.074;6.646;2022-08-21T07:13:43;9.20;;;2.90;;
59145;SDS011;44928;53.074;6.646;2022-08-21T07:16:10;12.05;;;3.13;;
59145;SDS011;44928;53.074;6.646;2022-08-21T07:18:35;9.98;;;2.80;;
59145;SDS011;44928;53.074;6.646;2022-08-21T07:21:02;11.32;;;2.88;;
59145;SDS011;44928;53.074;6.646;2022-08-21T07:23:30;10.40;;;2.80;;
59145;SDS011;44928;53.074;6.646;2022-08-21T07:25:59;9.48;;;2.80;;
59145;SDS011;44928;53.074;6.646;2022-08-21T07:28:26;11.75;;;2.75;;
59145;SDS011;44928;53.074;6.646;2022-08-21T07:30:53;10.07;;;2.33;;
59145;SDS011;44928;53.074;6.646;2022-08-21T07:33:21;10.88;;;2.75;;
59145;SDS011;44928;53.074;6.646;2022-08-21T07:35:47;10.95;;;2.92;;
59145;SDS011;44928;53.074;6.646;2022-08-21T07:38:13;9.68;;;2.25;;
59145;SDS011;44928;53.074;6.646;2022-08-21T07:40:38;10.82;;;2.22;;
59145;SDS011;44928;53.074;6.646;2022-08-21T07:43:04;10.75;;;2.10;;
59145;SDS011;44928;53.074;6.646;2022-08-21T07:45:30;10.73;;;2.13;;
59145;SDS011;44928;53.074;6.646;2022-08-21T07:47:56;10.25;;;2.22;;
59145;SDS011;44928;53.074;6.646;2022-08-21T07:50:22;7.95;;;2.35;;
59145;SDS011;44928;53.074;6.646;2022-08-21T07:52:48;10.07;;;2.42;;
59145;SDS011;44928;53.074;6.646;2022-08-21T07:55:16;8.90;;;2.40;;
59145;SDS011;44928;53.074;6.646;2022-08-21T07:57:43;10.50;;;2.20;;
59145;SDS011;44928;53.074;6.646;2022-08-21T08:00:11;8.38;;;2.50;;
59145;SDS011;44928;53.074;6.646;2022-08-21T08:02:39;11.23;;;2.55;;
59145;SDS011;44928;53.074;6.646;2022-08-21T08:05:09;9.18;;;2.33;;
59145;SDS011;44928;53.074;6.646;2022-08-21T08:07:36;12.30;;;2.38;;
59145;SDS011;44928;53.074;6.646;2022-08-21T08:10:03;13.00;;;2.67;;
59145;SDS011;44928;53.074;6.646;2022-08-21T08:12:32;11.15;;;2.95;;
59145;SDS011;44928;53.074;6.646;2022-08-21T08:15:02;11.53;;;3.17;;
59145;SDS011;44928;53.074;6.646;2022-08-21T08:17:29;10.32;;;2.63;;
59145;SDS011;44928;53.074;6.646;2022-08-21T08:19:57;12.20;;;3.00;;
59145;SDS011;44928;53.074;6.646;2022-08-21T08:22:24;11.07;;;2.97;;
59145;SDS011;44928;53.074;6.646;2022-08-21T08:24:50;10.57;;;2.63;;
59145;SDS011;44928;53.074;6.646;2022-08-21T08:27:17;9.68;;;2.40;;
59145;SDS011;44928;53.074;6.646;2022-08-21T08:29:43;10.73;;;2.63;;
59145;SDS011;44928;53.074;6.646;2022-08-21T08:32:10;9.07;;;2.53;;
59145;SDS011;44928;53.074;6.646;2022-08-21T08:34:36;9.65;;;2.60;;
59145;SDS011;44928;53.074;6.646;2022-08-21T08:37:04;7.68;;;2.30;;
59145;SDS011;44928;53.074;6.646;2022-08-21T08:39:31;11.18;;;2.78;;
59145;SDS011;44928;53.074;6.646;2022-08-21T08:44:42;8.02;;;1.67;;
59145;SDS011;44928;53.074;6.646;2022-08-21T08:47:14;10.05;;;2.35;;
59145;SDS011;44928;53.074;6.646;2022-08-21T08:49:47;11.02;;;2.03;;
59145;SDS011;44928;53.074;6.646;2022-08-21T08:53:03;9.10;;;1.92;;
59145;SDS011;44928;53.074;6.646;2022-08-21T08:55:14;9.30;;;2.40;;
59145;SDS011;44928;53.074;6.646;2022-08-21T08:57:45;9.68;;;2.00;;
59145;SDS011;44928;53.074;6.646;2022-08-21T09:00:13;12.02;;;2.20;;
59145;SDS011;44928;53.074;6.646;2022-08-21T09:02:41;8.38;;;1.67;;
59145;SDS011;44928;53.074;6.646;2022-08-21T09:05:23;7.78;;;1.80;;
59145;SDS011;44928;53.074;6.646;2022-08-21T09:08:11;9.32;;;1.75;;
59145;SDS011;44928;53.074;6.646;2022-08-21T09:21:48;7.88;;;1.83;;
59145;SDS011;44928;53.074;6.646;2022-08-21T09:24:39;7.25;;;1.80;;
59145;SDS011;44928;53.074;6.646;2022-08-21T09:27:09;8.10;;;1.98;;
59145;SDS011;44928;53.074;6.646;2022-08-21T09:29:42;8.23;;;1.88;;
59145;SDS011;44928;53.074;6.646;2022-08-21T09:34:57;9.00;;;1.70;;
59145;SDS011;44928;53.074;6.646;2022-08-21T09:37:31;10.40;;;2.00;;
59145;SDS011;44928;53.074;6.646;2022-08-21T09:40:00;9.07;;;1.77;;
59145;SDS011;44928;53.074;6.646;2022-08-21T09:42:28;7.03;;;1.60;;
59145;SDS011;44928;53.074;6.646;2022-08-21T09:45:09;10.23;;;1.93;;
59145;SDS011;44928;53.074;6.646;2022-08-21T09:47:40;7.43;;;1.63;;
59145;SDS011;44928;53.074;6.646;2022-08-21T09:50:07;9.35;;;2.25;;
59145;SDS011;44928;53.074;6.646;2022-08-21T09:52:55;11.15;;;2.42;;
59145;SDS011;44928;53.074;6.646;2022-08-21T09:55:39;7.60;;;1.92;;
59145;SDS011;44928;53.074;6.646;2022-08-21T09:58:36;8.63;;;1.98;;
59145;SDS011;44928;53.074;6.646;2022-08-21T10:01:04;10.52;;;1.92;;
59145;SDS011;44928;53.074;6.646;2022-08-21T10:03:31;9.15;;;1.83;;
59145;SDS011;44928;53.074;6.646;2022-08-21T10:06:02;8.63;;;1.80;;
59145;SDS011;44928;53.074;6.646;2022-08-21T10:08:33;11.13;;;2.10;;
59145;SDS011;44928;53.074;6.646;2022-08-21T10:11:02;9.25;;;1.88;;
59145;SDS011;44928;53.074;6.646;2022-08-21T10:13:47;9.18;;;1.90;;
59145;SDS011;44928;53.074;6.646;2022-08-21T10:27:51;6.50;;;1.55;;
59145;SDS011;44928;53.074;6.646;2022-08-21T10:30:36;6.78;;;1.60;;
59145;SDS011;44928;53.074;6.646;2022-08-21T10:36:51;9.05;;;1.95;;
59145;SDS011;44928;53.074;6.646;2022-08-21T10:42:05;8.60;;;1.58;;
59145;SDS011;44928;53.074;6.646;2022-08-21T10:47:03;9.65;;;2.00;;
59145;SDS011;44928;53.074;6.646;2022-08-21T10:49:42;5.65;;;1.40;;
59145;SDS011;44928;53.074;6.646;2022-08-21T10:52:22;6.90;;;1.50;;
59145;SDS011;44928;53.074;6.646;2022-08-21T10:55:15;7.88;;;1.75;;
59145;SDS011;44928;53.074;6.646;2022-08-21T10:58:08;8.68;;;1.73;;
59145;SDS011;44928;53.074;6.646;2022-08-21T11:03:13;8.80;;;1.80;;
59145;SDS011;44928;53.074;6.646;2022-08-21T11:06:06;10.23;;;1.67;;
59145;SDS011;44928;53.074;6.646;2022-08-21T11:08:57;9.15;;;2.15;;
59145;SDS011;44928;53.074;6.646;2022-08-21T11:11:31;8.20;;;2.03;;
59145;SDS011;44928;53.074;6.646;2022-08-21T11:16:53;10.20;;;1.88;;
59145;SDS011;44928;53.074;6.646;2022-08-21T11:19:35;8.73;;;1.83;;
59145;SDS011;44928;53.074;6.646;2022-08-21T11:22:21;8.05;;;1.85;;
59145;SDS011;44928;53.074;6.646;2022-08-21T11:25:04;11.13;;;1.77;;
59145;SDS011;44928;53.074;6.646;2022-08-21T11:27:40;9.02;;;2.15;;
59145;SDS011;44928;53.074;6.646;2022-08-21T11:30:12;7.65;;;2.03;;
59145;SDS011;44928;53.074;6.646;2022-08-21T11:35:39;8.57;;;1.52;;
59145;SDS011;44928;53.074;6.646;2022-08-21T11:38:38;6.70;;;1.70;;
59145;SDS011;44928;53.074;6.646;2022-08-21T11:43:48;8.18;;;2.03;;
59145;SDS011;44928;53.074;6.646;2022-08-21T11:46:34;6.30;;;1.35;;
59145;SDS011;44928;53.074;6.646;2022-08-21T11:49:21;6.97;;;1.67;;
59145;SDS011;44928;53.074;6.646;2022-08-21T11:52:18;7.90;;;2.10;;
59145;SDS011;44928;53.074;6.646;2022-08-21T11:54:56;5.80;;;1.52;;
59145;SDS011;44928;53.074;6.646;2022-08-21T12:00:05;7.95;;;1.90;;
59145;SDS011;44928;53.074;6.646;2022-08-21T12:02:36;10.52;;;2.25;;
59145;SDS011;44928;53.074;6.646;2022-08-21T12:05:11;10.27;;;1.98;;
59145;SDS011;44928;53.074;6.646;2022-08-21T12:08:00;7.25;;;1.83;;
59145;SDS011;44928;53.074;6.646;2022-08-21T12:10:33;8.52;;;2.05;;
59145;SDS011;44928;53.074;6.646;2022-08-21T12:13:28;7.85;;;1.70;;
59145;SDS011;44928;53.074;6.646;2022-08-21T12:16:12;8.90;;;2.03;;
59145;SDS011;44928;53.074;6.646;2022-08-21T12:18:40;8.05;;;1.88;;
59145;SDS011;44928;53.074;6.646;2022-08-21T12:21:26;8.93;;;2.30;;
59145;SDS011;44928;53.074;6.646;2022-08-21T12:26:50;8.73;;;2.05;;
59145;SDS011;44928;53.074;6.646;2022-08-21T12:29:30;7.40;;;1.58;;
59145;SDS011;44928;53.074;6.646;2022-08-21T12:32:22;8.60;;;2.10;;
59145;SDS011;44928;53.074;6.646;2022-08-21T12:35:13;7.75;;;1.90;;
59145;SDS011;44928;53.074;6.646;2022-08-21T12:37:51;8.35;;;2.20;;
59145;SDS011;44928;53.074;6.646;2022-08-21T12:40:31;7.05;;;1.55;;
59145;SDS011;44928;53.074;6.646;2022-08-21T12:43:33;5.53;;;1.48;;
59145;SDS011;44928;53.074;6.646;2022-08-21T12:46:00;7.18;;;1.73;;
59145;SDS011;44928;53.074;6.646;2022-08-21T12:48:44;7.95;;;1.80;;
59145;SDS011;44928;53.074;6.646;2022-08-21T12:51:17;8.82;;;2.05;;
59145;SDS011;44928;53.074;6.646;2022-08-21T12:53:49;7.72;;;1.90;;
59145;SDS011;44928;53.074;6.646;2022-08-21T12:56:18;7.75;;;1.80;;
59145;SDS011;44928;53.074;6.646;2022-08-21T12:58:48;10.73;;;2.17;;
59145;SDS011;44928;53.074;6.646;2022-08-21T13:04:07;8.55;;;2.20;;
59145;SDS011;44928;53.074;6.646;2022-08-21T13:06:47;10.80;;;2.08;;
59145;SDS011;44928;53.074;6.646;2022-08-21T13:09:18;7.50;;;2.03;;
59145;SDS011;44928;53.074;6.646;2022-08-21T13:11:49;8.52;;;2.10;;
59145;SDS011;44928;53.074;6.646;2022-08-21T13:14:28;7.28;;;2.33;;
59145;SDS011;44928;53.074;6.646;2022-08-21T13:17:00;8.10;;;2.08;;
59145;SDS011;44928;53.074;6.646;2022-08-21T13:19:29;9.45;;;1.90;;
59145;SDS011;44928;53.074;6.646;2022-08-21T13:21:57;7.00;;;1.67;;
59145;SDS011;44928;53.074;6.646;2022-08-21T13:24:24;9.93;;;2.10;;
59145;SDS011;44928;53.074;6.646;2022-08-21T13:26:53;7.15;;;2.17;;
59145;SDS011;44928;53.074;6.646;2022-08-21T13:29:21;10.73;;;2.05;;
59145;SDS011;44928;53.074;6.646;2022-08-21T13:31:53;8.38;;;2.28;;
59145;SDS011;44928;53.074;6.646;2022-08-21T13:34:22;8.68;;;2.20;;
59145;SDS011;44928;53.074;6.646;2022-08-21T13:36:51;7.50;;;1.65;;
59145;SDS011;44928;53.074;6.646;2022-08-21T13:39:23;10.05;;;2.05;;
59145;SDS011;44928;53.074;6.646;2022-08-21T13:41:50;8.48;;;2.20;;
59145;SDS011;44928;53.074;6.646;2022-08-21T13:46:47;7.25;;;1.90;;
59145;SDS011;44928;53.074;6.646;2022-08-21T13:49:16;8.85;;;2.08;;
59145;SDS011;44928;53.074;6.646;2022-08-21T13:51:44;10.60;;;2.03;;
59145;SDS011;44928;53.074;6.646;2022-08-21T13:54:33;9.35;;;2.22;;
59145;SDS011;44928;53.074;6.646;2022-08-21T13:57:15;7.90;;;1.90;;
59145;SDS011;44928;53.074;6.646;2022-08-21T13:59:45;8.32;;;1.90;;
59145;SDS011;44928;53.074;6.646;2022-08-21T14:02:15;9.02;;;1.85;;
59145;SDS011;44928;53.074;6.646;2022-08-21T14:05:02;9.60;;;1.70;;
59145;SDS011;44928;53.074;6.646;2022-08-21T14:07:36;7.20;;;1.83;;
59145;SDS011;44928;53.074;6.646;2022-08-21T14:10:06;8.35;;;1.92;;
59145;SDS011;44928;53.074;6.646;2022-08-21T14:12:41;7.90;;;1.85;;
59145;SDS011;44928;53.074;6.646;2022-08-21T14:15:18;7.15;;;1.60;;
59145;SDS011;44928;53.074;6.646;2022-08-21T14:17:50;6.97;;;1.90;;
59145;SDS011;44928;53.074;6.646;2022-08-21T14:20:29;7.75;;;1.77;;
59145;SDS011;44928;53.074;6.646;2022-08-21T14:22:58;9.25;;;1.80;;
59145;SDS011;44928;53.074;6.646;2022-08-21T14:27:51;7.25;;;1.40;;
59145;SDS011;44928;53.074;6.646;2022-08-21T14:30:19;6.63;;;1.88;;
59145;SDS011;44928;53.074;6.646;2022-08-21T14:32:45;7.25;;;1.38;;
59145;SDS011;44928;53.074;6.646;2022-08-21T14:35:11;6.47;;;1.48;;
59145;SDS011;44928;53.074;6.646;2022-08-21T14:37:41;8.32;;;1.92;;
59145;SDS011;44928;53.074;6.646;2022-08-21T14:40:07;7.03;;;1.50;;
59145;SDS011;44928;53.074;6.646;2022-08-21T14:42:34;8.13;;;1.58;;
59145;SDS011;44928;53.074;6.646;2022-08-21T14:45:01;10.38;;;1.75;;
59145;SDS011;44928;53.074;6.646;2022-08-21T14:47:36;8.93;;;3.50;;
59145;SDS011;44928;53.074;6.646;2022-08-21T14:50:02;8.80;;;2.00;;
59145;SDS011;44928;53.074;6.646;2022-08-21T14:52:28;7.55;;;2.70;;
59145;SDS011;44928;53.074;6.646;2022-08-21T14:54:54;5.28;;;1.73;;
59145;SDS011;44928;53.074;6.646;2022-08-21T14:57:20;9.45;;;1.67;;
59145;SDS011;44928;53.074;6.646;2022-08-21T14:59:46;6.55;;;1.55;;
59145;SDS011;44928;53.074;6.646;2022-08-21T15:02:12;6.00;;;1.80;;
59145;SDS011;44928;53.074;6.646;2022-08-21T15:04:37;9.02;;;1.90;;
59145;SDS011;44928;53.074;6.646;2022-08-21T15:07:03;8.65;;;1.70;;
59145;SDS011;44928;53.074;6.646;2022-08-21T15:09:29;8.05;;;2.10;;
59145;SDS011;44928;53.074;6.646;2022-08-21T15:11:56;7.40;;;2.45;;
59145;SDS011;44928;53.074;6.646;2022-08-21T15:14:25;7.15;;;1.70;;
59145;SDS011;44928;53.074;6.646;2022-08-21T15:16:53;8.63;;;2.28;;
59145;SDS011;44928;53.074;6.646;2022-08-21T15:19:19;9.40;;;2.50;;
59145;SDS011;44928;53.074;6.646;2022-08-21T15:21:45;8.57;;;2.92;;
59145;SDS011;44928;53.074;6.646;2022-08-21T15:24:11;9.88;;;3.17;;
59145;SDS011;44928;53.074;6.646;2022-08-21T15:26:37;10.88;;;2.85;;
59145;SDS011;44928;53.074;6.646;2022-08-21T15:29:04;10.27;;;4.13;;
59145;SDS011;44928;53.074;6.646;2022-08-21T15:31:31;8.55;;;2.80;;
59145;SDS011;44928;53.074;6.646;2022-08-21T15:34:00;8.48;;;2.97;;
59145;SDS011;44928;53.074;6.646;2022-08-21T15:36:26;7.57;;;1.75;;
59145;SDS011;44928;53.074;6.646;2022-08-21T15:38:52;8.18;;;1.73;;
59145;SDS011;44928;53.074;6.646;2022-08-21T15:41:18;8.90;;;1.77;;
59145;SDS011;44928;53.074;6.646;2022-08-21T15:43:47;6.47;;;1.50;;
59145;SDS011;44928;53.074;6.646;2022-08-21T15:46:16;5.63;;;1.42;;
59145;SDS011;44928;53.074;6.646;2022-08-21T15:48:43;6.72;;;1.50;;
59145;SDS011;44928;53.074;6.646;2022-08-21T15:51:11;5.55;;;1.20;;
59145;SDS011;44928;53.074;6.646;2022-08-21T15:53:38;8.32;;;2.10;;
59145;SDS011;44928;53.074;6.646;2022-08-21T15:56:12;6.97;;;1.95;;
59145;SDS011;44928;53.074;6.646;2022-08-21T15:58:47;8.50;;;1.75;;
59145;SDS011;44928;53.074;6.646;2022-08-21T16:01:13;5.85;;;1.50;;
59145;SDS011;44928;53.074;6.646;2022-08-21T16:03:39;5.68;;;1.40;;
59145;SDS011;44928;53.074;6.646;2022-08-21T16:06:06;7.57;;;1.80;;
59145;SDS011;44928;53.074;6.646;2022-08-21T16:08:31;9.75;;;2.00;;